sensor_id;sensor_type;location;lat;lon;timestamp;P1;durP1;ratioP1;P2;durP2;ratioP2
2896;SDS011;1458;49.728;9.228;2023-09-07T00:00:40;0.10;;;0.10;;
2896;SDS011;1458;49.728;9.228;2023-09-07T00:03:07;0.20;;;0.20;;
2896;SDS011;1458;49.728;9.228;2023-09-07T00:05:35;0.20;;;0.20;;
2896;SDS011;1458;49.728;9.228;2023-09-07T00:08:02;0.20;;;0.20;;
2896;SDS011;1458;49.728;9.228;2023-09-07T00:10:32;0.20;;;0.20;;
2896;SDS011;1458;49.728;9.228;2023-09-07T00:13:00;0.20;;;0.20;;
2896;SDS011;1458;49.728;9.228;2023-09-07T00:15:28;0.10;;;0.10;;
2896;SDS011;1458;49.728;9.228;2023-09-07T00:17:57;0.10;;;0.10;;
2896;SDS011;1458;49.728;9.228;2023-09-07T00:20:25;0.20;;;0.20;;
2896;SDS011;1458;49.728;9.228;2023-09-07T00:22:53;0.20;;;0.20;;
2896;SDS011;1458;49.728;9.228;2023-09-07T00:25:20;0.20;;;0.20;;
2896;SDS011;1458;49.728;9.228;2023-09-07T00:27:48;0.20;;;0.20;;
2896;SDS011;1458;49.728;9.228;2023-09-07T00:30:15;0.20;;;0.20;;
2896;SDS011;1458;49.728;9.228;2023-09-07T00:32:43;0.20;;;0.20;;
2896;SDS011;1458;49.728;9.228;2023-09-07T00:35:11;0.20;;;0.20;;
2896;SDS011;1458;49.728;9.228;2023-09-07T00:37:39;0.20;;;0.20;;
2896;SDS011;1458;49.728;9.228;2023-09-07T00:40:07;0.10;;;0.10;;
2896;SDS011;1458;49.728;9.228;2023-09-07T00:42:35;0.20;;;0.20;;
2896;SDS011;1458;49.728;9.228;2023-09-07T00:45:03;0.20;;;0.20;;
2896;SDS011;1458;49.728;9.228;2023-09-07T00:47:32;0.17;;;0.17;;
2896;SDS011;1458;49.728;9.228;2023-09-07T00:50:01;0.20;;;0.20;;
2896;SDS011;1458;49.728;9.228;2023-09-07T00:52:34;0.20;;;0.20;;
2896;SDS011;1458;49.728;9.228;2023-09-07T00:55:05;0.20;;;0.20;;
2896;SDS011;1458;49.728;9.228;2023-09-07T00:57:35;0.20;;;0.20;;
2896;SDS011;1458;49.728;9.228;2023-09-07T01:00:05;0.20;;;0.20;;
2896;SDS011;1458;49.728;9.228;2023-09-07T01:02:34;0.20;;;0.20;;
2896;SDS011;1458;49.728;9.228;2023-09-07T01:05:02;0.20;;;0.20;;
2896;SDS011;1458;49.728;9.228;2023-09-07T01:07:32;0.20;;;0.20;;
2896;SDS011;1458;49.728;9.228;2023-09-07T01:10:05;0.20;;;0.20;;
2896;SDS011;1458;49.728;9.228;2023-09-07T01:12:43;0.10;;;0.10;;
2896;SDS011;1458;49.728;9.228;2023-09-07T01:15:36;0.20;;;0.20;;
2896;SDS011;1458;49.728;9.228;2023-09-07T01:18:12;0.20;;;0.20;;
2896;SDS011;1458;49.728;9.228;2023-09-07T01:20:41;0.17;;;0.17;;
2896;SDS011;1458;49.728;9.228;2023-09-07T01:23:10;0.20;;;0.20;;
2896;SDS011;1458;49.728;9.228;2023-09-07T01:25:39;0.20;;;0.20;;
2896;SDS011;1458;49.728;9.228;2023-09-07T01:28:07;0.10;;;0.10;;
2896;SDS011;1458;49.728;9.228;2023-09-07T01:30:36;0.20;;;0.20;;
2896;SDS011;1458;49.728;9.228;2023-09-07T01:33:04;0.20;;;0.20;;
2896;SDS011;1458;49.728;9.228;2023-09-07T01:35:31;0.10;;;0.10;;
2896;SDS011;1458;49.728;9.228;2023-09-07T01:38:00;0.10;;;0.10;;
2896;SDS011;1458;49.728;9.228;2023-09-07T01:40:29;0.20;;;0.20;;
2896;SDS011;1458;49.728;9.228;2023-09-07T01:42:57;0.20;;;0.20;;
2896;SDS011;1458;49.728;9.228;2023-09-07T01:45:24;0.10;;;0.10;;
2896;SDS011;1458;49.728;9.228;2023-09-07T01:47:51;0.10;;;0.10;;
2896;SDS011;1458;49.728;9.228;2023-09-07T01:50:19;0.10;;;0.10;;
2896;SDS011;1458;49.728;9.228;2023-09-07T01:52:46;0.20;;;0.20;;
2896;SDS011;1458;49.728;9.228;2023-09-07T01:55:15;0.10;;;0.10;;
2896;SDS011;1458;49.728;9.228;2023-09-07T01:57:44;0.10;;;0.10;;
2896;SDS011;1458;49.728;9.228;2023-09-07T02:00:11;0.10;;;0.10;;
2896;SDS011;1458;49.728;9.228;2023-09-07T02:02:40;0.10;;;0.10;;
2896;SDS011;1458;49.728;9.228;2023-09-07T02:05:07;0.20;;;0.20;;
2896;SDS011;1458;49.728;9.228;2023-09-07T02:07:35;0.20;;;0.20;;
2896;SDS011;1458;49.728;9.228;2023-09-07T02:10:03;0.10;;;0.10;;
2896;SDS011;1458;49.728;9.228;2023-09-07T02:12:31;0.10;;;0.10;;
2896;SDS011;1458;49.728;9.228;2023-09-07T02:15:00;0.10;;;0.10;;
2896;SDS011;1458;49.728;9.228;2023-09-07T02:17:29;0.20;;;0.20;;
2896;SDS011;1458;49.728;9.228;2023-09-07T02:19:57;0.20;;;0.20;;
2896;SDS011;1458;49.728;9.228;2023-09-07T02:22:25;0.20;;;0.20;;
2896;SDS011;1458;49.728;9.228;2023-09-07T02:24:52;0.20;;;0.20;;
2896;SDS011;1458;49.728;9.228;2023-09-07T02:27:20;0.20;;;0.20;;
2896;SDS011;1458;49.728;9.228;2023-09-07T02:29:47;0.10;;;0.10;;
2896;SDS011;1458;49.728;9.228;2023-09-07T02:32:16;0.10;;;0.10;;
2896;SDS011;1458;49.728;9.228;2023-09-07T02:34:44;0.20;;;0.20;;
2896;SDS011;1458;49.728;9.228;2023-09-07T02:37:11;0.20;;;0.20;;
2896;SDS011;1458;49.728;9.228;2023-09-07T02:39:40;0.10;;;0.10;;
2896;SDS011;1458;49.728;9.228;2023-09-07T02:42:07;0.20;;;0.20;;
2896;SDS011;1458;49.728;9.228;2023-09-07T02:44:34;0.20;;;0.20;;
2896;SDS011;1458;49.728;9.228;2023-09-07T02:47:03;0.20;;;0.20;;
2896;SDS011;1458;49.728;9.228;2023-09-07T02:49:32;0.20;;;0.20;;
2896;SDS011;1458;49.728;9.228;2023-09-07T02:51:59;0.20;;;0.20;;
2896;SDS011;1458;49.728;9.228;2023-09-07T02:54:27;0.20;;;0.20;;
2896;SDS011;1458;49.728;9.228;2023-09-07T02:56:54;0.20;;;0.20;;
2896;SDS011;1458;49.728;9.228;2023-09-07T02:59:22;0.20;;;0.20;;
2896;SDS011;1458;49.728;9.228;2023-09-07T03:01:49;0.20;;;0.20;;
2896;SDS011;1458;49.728;9.228;2023-09-07T03:04:16;0.20;;;0.20;;
2896;SDS011;1458;49.728;9.228;2023-09-07T03:06:45;0.20;;;0.20;;
2896;SDS011;1458;49.728;9.228;2023-09-07T03:09:14;0.20;;;0.20;;
2896;SDS011;1458;49.728;9.228;2023-09-07T03:11:41;0.20;;;0.20;;
2896;SDS011;1458;49.728;9.228;2023-09-07T03:14:09;0.20;;;0.20;;
2896;SDS011;1458;49.728;9.228;2023-09-07T03:16:36;0.20;;;0.20;;
2896;SDS011;1458;49.728;9.228;2023-09-07T03:19:04;0.20;;;0.20;;
2896;SDS011;1458;49.728;9.228;2023-09-07T03:21:32;0.20;;;0.20;;
2896;SDS011;1458;49.728;9.228;2023-09-07T03:24:01;0.20;;;0.20;;
2896;SDS011;1458;49.728;9.228;2023-09-07T03:26:30;0.10;;;0.10;;
2896;SDS011;1458;49.728;9.228;2023-09-07T03:28:58;0.20;;;0.20;;
2896;SDS011;1458;49.728;9.228;2023-09-07T03:31:26;0.20;;;0.20;;
2896;SDS011;1458;49.728;9.228;2023-09-07T03:33:55;0.20;;;0.20;;
2896;SDS011;1458;49.728;9.228;2023-09-07T03:36:22;0.20;;;0.20;;
2896;SDS011;1458;49.728;9.228;2023-09-07T03:38:49;0.10;;;0.10;;
2896;SDS011;1458;49.728;9.228;2023-09-07T03:41:18;0.20;;;0.20;;
2896;SDS011;1458;49.728;9.228;2023-09-07T03:43:45;0.20;;;0.20;;
2896;SDS011;1458;49.728;9.228;2023-09-07T03:46:13;0.20;;;0.20;;
2896;SDS011;1458;49.728;9.228;2023-09-07T03:48:40;0.20;;;0.20;;
2896;SDS011;1458;49.728;9.228;2023-09-07T03:51:08;0.20;;;0.20;;
2896;SDS011;1458;49.728;9.228;2023-09-07T03:53:35;0.20;;;0.20;;
2896;SDS011;1458;49.728;9.228;2023-09-07T03:56:03;0.20;;;0.20;;
2896;SDS011;1458;49.728;9.228;2023-09-07T03:58:32;0.20;;;0.20;;
2896;SDS011;1458;49.728;9.228;2023-09-07T04:01:00;0.10;;;0.10;;
2896;SDS011;1458;49.728;9.228;2023-09-07T04:03:28;0.20;;;0.20;;
2896;SDS011;1458;49.728;9.228;2023-09-07T04:05:56;0.20;;;0.20;;
2896;SDS011;1458;49.728;9.228;2023-09-07T04:08:23;0.20;;;0.20;;
2896;SDS011;1458;49.728;9.228;2023-09-07T04:10:51;0.20;;;0.20;;
2896;SDS011;1458;49.728;9.228;2023-09-07T04:13:19;0.10;;;0.10;;
2896;SDS011;1458;49.728;9.228;2023-09-07T04:15:48;0.10;;;0.10;;
2896;SDS011;1458;49.728;9.228;2023-09-07T04:18:16;0.20;;;0.20;;
2896;SDS011;1458;49.728;9.228;2023-09-07T04:20:44;0.20;;;0.20;;
2896;SDS011;1458;49.728;9.228;2023-09-07T04:23:13;0.20;;;0.20;;
2896;SDS011;1458;49.728;9.228;2023-09-07T04:25:40;0.20;;;0.20;;
2896;SDS011;1458;49.728;9.228;2023-09-07T04:28:08;0.20;;;0.20;;
2896;SDS011;1458;49.728;9.228;2023-09-07T04:30:37;0.20;;;0.20;;
2896;SDS011;1458;49.728;9.228;2023-09-07T04:33:06;0.20;;;0.20;;
2896;SDS011;1458;49.728;9.228;2023-09-07T04:35:35;0.20;;;0.20;;
2896;SDS011;1458;49.728;9.228;2023-09-07T04:38:03;0.20;;;0.20;;
2896;SDS011;1458;49.728;9.228;2023-09-07T04:40:31;0.20;;;0.20;;
2896;SDS011;1458;49.728;9.228;2023-09-07T04:42:58;0.20;;;0.20;;
2896;SDS011;1458;49.728;9.228;2023-09-07T04:45:26;0.10;;;0.10;;
2896;SDS011;1458;49.728;9.228;2023-09-07T04:47:53;0.20;;;0.20;;
2896;SDS011;1458;49.728;9.228;2023-09-07T04:50:22;0.27;;;0.27;;
2896;SDS011;1458;49.728;9.228;2023-09-07T04:52:51;0.20;;;0.20;;
2896;SDS011;1458;49.728;9.228;2023-09-07T04:55:19;0.20;;;0.20;;
2896;SDS011;1458;49.728;9.228;2023-09-07T04:57:46;0.20;;;0.20;;
2896;SDS011;1458;49.728;9.228;2023-09-07T05:00:14;0.20;;;0.20;;
2896;SDS011;1458;49.728;9.228;2023-09-07T05:02:42;0.20;;;0.20;;
2896;SDS011;1458;49.728;9.228;2023-09-07T05:05:09;0.20;;;0.20;;
2896;SDS011;1458;49.728;9.228;2023-09-07T05:07:38;0.20;;;0.20;;
2896;SDS011;1458;49.728;9.228;2023-09-07T05:10:07;0.20;;;0.20;;
2896;SDS011;1458;49.728;9.228;2023-09-07T15:56:30;13.20;;;12.70;;
2896;SDS011;1458;49.728;9.228;2023-09-07T15:58:57;13.50;;;13.00;;
2896;SDS011;1458;49.728;9.228;2023-09-07T16:01:25;12.97;;;12.50;;
2896;SDS011;1458;49.728;9.228;2023-09-07T16:03:52;13.20;;;12.70;;
2896;SDS011;1458;49.728;9.228;2023-09-07T16:06:19;12.87;;;12.47;;
2896;SDS011;1458;49.728;9.228;2023-09-07T16:08:47;12.83;;;12.43;;
2896;SDS011;1458;49.728;9.228;2023-09-07T16:11:16;13.27;;;12.77;;
2896;SDS011;1458;49.728;9.228;2023-09-07T16:13:43;13.53;;;13.03;;
2896;SDS011;1458;49.728;9.228;2023-09-07T16:16:12;13.30;;;12.80;;
2896;SDS011;1458;49.728;9.228;2023-09-07T16:18:39;13.77;;;13.27;;
2896;SDS011;1458;49.728;9.228;2023-09-07T16:21:07;13.60;;;13.10;;
2896;SDS011;1458;49.728;9.228;2023-09-07T16:23:40;12.90;;;12.50;;
2896;SDS011;1458;49.728;9.228;2023-09-07T16:26:08;13.03;;;12.60;;
2896;SDS011;1458;49.728;9.228;2023-09-07T16:28:37;13.13;;;12.70;;
2896;SDS011;1458;49.728;9.228;2023-09-07T16:31:05;12.93;;;12.53;;
2896;SDS011;1458;49.728;9.228;2023-09-07T16:33:33;13.10;;;12.70;;
2896;SDS011;1458;49.728;9.228;2023-09-07T16:36:00;12.70;;;12.30;;
2896;SDS011;1458;49.728;9.228;2023-09-07T16:38:28;12.80;;;12.40;;
2896;SDS011;1458;49.728;9.228;2023-09-07T16:40:55;12.93;;;12.53;;
2896;SDS011;1458;49.728;9.228;2023-09-07T16:43:22;12.80;;;12.40;;
2896;SDS011;1458;49.728;9.228;2023-09-07T16:45:57;12.40;;;12.00;;
2896;SDS011;1458;49.728;9.228;2023-09-07T16:48:25;12.13;;;11.73;;
2896;SDS011;1458;49.728;9.228;2023-09-07T16:50:53;12.63;;;12.23;;
2896;SDS011;1458;49.728;9.228;2023-09-07T16:53:21;12.87;;;12.47;;
2896;SDS011;1458;49.728;9.228;2023-09-07T16:55:49;12.90;;;12.50;;
2896;SDS011;1458;49.728;9.228;2023-09-07T16:58:17;12.80;;;12.40;;
2896;SDS011;1458;49.728;9.228;2023-09-07T17:00:44;11.70;;;11.40;;
2896;SDS011;1458;49.728;9.228;2023-09-07T17:03:13;12.63;;;12.23;;
2896;SDS011;1458;49.728;9.228;2023-09-07T17:05:41;11.60;;;11.30;;
2896;SDS011;1458;49.728;9.228;2023-09-07T17:08:08;11.60;;;11.30;;
2896;SDS011;1458;49.728;9.228;2023-09-07T17:10:36;12.00;;;11.67;;
2896;SDS011;1458;49.728;9.228;2023-09-07T17:13:04;11.70;;;11.40;;
2896;SDS011;1458;49.728;9.228;2023-09-07T17:15:32;12.07;;;11.73;;
2896;SDS011;1458;49.728;9.228;2023-09-07T17:18:00;11.70;;;11.40;;
2896;SDS011;1458;49.728;9.228;2023-09-07T17:20:29;11.60;;;11.30;;
2896;SDS011;1458;49.728;9.228;2023-09-07T17:22:56;11.70;;;11.40;;
2896;SDS011;1458;49.728;9.228;2023-09-07T17:25:24;11.47;;;11.17;;
2896;SDS011;1458;49.728;9.228;2023-09-07T17:27:51;11.50;;;11.20;;
2896;SDS011;1458;49.728;9.228;2023-09-07T17:30:19;11.10;;;10.80;;
2896;SDS011;1458;49.728;9.228;2023-09-07T17:32:46;11.27;;;10.97;;
2896;SDS011;1458;49.728;9.228;2023-09-07T17:35:13;10.80;;;10.50;;
2896;SDS011;1458;49.728;9.228;2023-09-07T17:37:42;10.70;;;10.40;;
2896;SDS011;1458;49.728;9.228;2023-09-07T17:40:10;10.57;;;10.27;;
2896;SDS011;1458;49.728;9.228;2023-09-07T17:42:39;10.20;;;10.00;;
2896;SDS011;1458;49.728;9.228;2023-09-07T17:45:07;10.20;;;10.00;;
2896;SDS011;1458;49.728;9.228;2023-09-07T17:47:35;10.03;;;9.83;;
2896;SDS011;1458;49.728;9.228;2023-09-07T17:50:02;9.73;;;9.53;;
2896;SDS011;1458;49.728;9.228;2023-09-07T17:52:32;9.80;;;9.60;;
2896;SDS011;1458;49.728;9.228;2023-09-07T17:55:01;8.80;;;8.60;;
2896;SDS011;1458;49.728;9.228;2023-09-07T17:57:29;8.40;;;8.30;;
2896;SDS011;1458;49.728;9.228;2023-09-07T17:59:56;8.20;;;8.10;;
2896;SDS011;1458;49.728;9.228;2023-09-07T18:02:25;7.70;;;7.60;;
2896;SDS011;1458;49.728;9.228;2023-09-07T18:04:56;7.03;;;6.93;;
2896;SDS011;1458;49.728;9.228;2023-09-07T18:07:24;6.70;;;6.60;;
2896;SDS011;1458;49.728;9.228;2023-09-07T18:09:51;6.20;;;6.20;;
2896;SDS011;1458;49.728;9.228;2023-09-07T18:12:20;6.03;;;6.03;;
2896;SDS011;1458;49.728;9.228;2023-09-07T18:14:48;5.43;;;5.43;;
2896;SDS011;1458;49.728;9.228;2023-09-07T18:17:16;5.43;;;5.43;;
2896;SDS011;1458;49.728;9.228;2023-09-07T18:19:43;5.23;;;5.23;;
2896;SDS011;1458;49.728;9.228;2023-09-07T18:22:10;5.33;;;5.33;;
2896;SDS011;1458;49.728;9.228;2023-09-07T18:24:38;4.50;;;4.50;;
2896;SDS011;1458;49.728;9.228;2023-09-07T18:27:06;4.33;;;4.33;;
2896;SDS011;1458;49.728;9.228;2023-09-07T18:29:35;4.00;;;4.00;;
2896;SDS011;1458;49.728;9.228;2023-09-07T18:32:02;3.87;;;3.87;;
2896;SDS011;1458;49.728;9.228;2023-09-07T18:34:31;3.50;;;3.50;;
2896;SDS011;1458;49.728;9.228;2023-09-07T18:36:59;3.93;;;3.93;;
2896;SDS011;1458;49.728;9.228;2023-09-07T18:39:27;3.40;;;3.40;;
2896;SDS011;1458;49.728;9.228;2023-09-07T18:41:54;3.50;;;3.50;;
2896;SDS011;1458;49.728;9.228;2023-09-07T18:44:22;3.30;;;3.30;;
2896;SDS011;1458;49.728;9.228;2023-09-07T18:46:50;3.33;;;3.33;;
2896;SDS011;1458;49.728;9.228;2023-09-07T18:49:18;3.07;;;3.07;;
2896;SDS011;1458;49.728;9.228;2023-09-07T18:51:46;2.53;;;2.53;;
2896;SDS011;1458;49.728;9.228;2023-09-07T18:54:14;2.30;;;2.30;;
2896;SDS011;1458;49.728;9.228;2023-09-07T18:56:41;2.10;;;2.10;;
2896;SDS011;1458;49.728;9.228;2023-09-07T18:59:09;2.00;;;2.00;;
2896;SDS011;1458;49.728;9.228;2023-09-07T19:01:36;1.80;;;1.80;;
2896;SDS011;1458;49.728;9.228;2023-09-07T19:04:08;1.70;;;1.70;;
2896;SDS011;1458;49.728;9.228;2023-09-07T19:06:37;1.50;;;1.50;;
2896;SDS011;1458;49.728;9.228;2023-09-07T19:09:05;1.30;;;1.30;;
2896;SDS011;1458;49.728;9.228;2023-09-07T19:11:33;1.40;;;1.40;;
2896;SDS011;1458;49.728;9.228;2023-09-07T19:14:01;1.00;;;1.00;;
2896;SDS011;1458;49.728;9.228;2023-09-07T19:16:29;1.00;;;1.00;;
2896;SDS011;1458;49.728;9.228;2023-09-07T19:18:57;1.00;;;1.00;;
2896;SDS011;1458;49.728;9.228;2023-09-07T19:21:26;0.93;;;0.93;;
2896;SDS011;1458;49.728;9.228;2023-09-07T19:23:54;1.10;;;1.10;;
2896;SDS011;1458;49.728;9.228;2023-09-07T19:26:25;0.80;;;0.80;;
2896;SDS011;1458;49.728;9.228;2023-09-07T19:28:55;0.90;;;0.90;;
2896;SDS011;1458;49.728;9.228;2023-09-07T19:31:23;1.00;;;1.00;;
2896;SDS011;1458;49.728;9.228;2023-09-07T19:33:53;0.90;;;0.90;;
2896;SDS011;1458;49.728;9.228;2023-09-07T19:36:22;0.93;;;0.93;;
2896;SDS011;1458;49.728;9.228;2023-09-07T19:38:52;0.90;;;0.90;;
2896;SDS011;1458;49.728;9.228;2023-09-07T19:41:22;0.80;;;0.80;;
2896;SDS011;1458;49.728;9.228;2023-09-07T19:43:49;0.80;;;0.80;;
2896;SDS011;1458;49.728;9.228;2023-09-07T19:46:17;0.53;;;0.53;;
2896;SDS011;1458;49.728;9.228;2023-09-07T19:48:45;0.70;;;0.70;;
2896;SDS011;1458;49.728;9.228;2023-09-07T19:51:13;0.57;;;0.57;;
2896;SDS011;1458;49.728;9.228;2023-09-07T19:53:42;0.50;;;0.50;;
2896;SDS011;1458;49.728;9.228;2023-09-07T19:56:12;0.50;;;0.50;;
2896;SDS011;1458;49.728;9.228;2023-09-07T19:58:42;0.30;;;0.30;;
2896;SDS011;1458;49.728;9.228;2023-09-07T20:01:10;0.40;;;0.40;;
2896;SDS011;1458;49.728;9.228;2023-09-07T20:03:38;0.40;;;0.40;;
2896;SDS011;1458;49.728;9.228;2023-09-07T20:06:10;0.40;;;0.40;;
2896;SDS011;1458;49.728;9.228;2023-09-07T20:08:39;0.33;;;0.33;;
2896;SDS011;1458;49.728;9.228;2023-09-07T20:11:07;0.40;;;0.40;;
2896;SDS011;1458;49.728;9.228;2023-09-07T20:13:37;0.40;;;0.40;;
2896;SDS011;1458;49.728;9.228;2023-09-07T20:16:04;0.30;;;0.30;;
2896;SDS011;1458;49.728;9.228;2023-09-07T20:18:36;0.30;;;0.30;;
2896;SDS011;1458;49.728;9.228;2023-09-07T20:21:04;0.20;;;0.20;;
2896;SDS011;1458;49.728;9.228;2023-09-07T20:23:31;0.30;;;0.30;;
2896;SDS011;1458;49.728;9.228;2023-09-07T20:26:00;0.20;;;0.20;;
2896;SDS011;1458;49.728;9.228;2023-09-07T20:28:29;0.20;;;0.20;;
2896;SDS011;1458;49.728;9.228;2023-09-07T20:30:58;0.20;;;0.20;;
2896;SDS011;1458;49.728;9.228;2023-09-07T20:33:25;0.20;;;0.20;;
2896;SDS011;1458;49.728;9.228;2023-09-07T20:35:53;0.20;;;0.20;;
2896;SDS011;1458;49.728;9.228;2023-09-07T20:38:22;0.20;;;0.20;;
2896;SDS011;1458;49.728;9.228;2023-09-07T20:40:50;0.20;;;0.20;;
2896;SDS011;1458;49.728;9.228;2023-09-07T20:43:18;0.23;;;0.23;;
2896;SDS011;1458;49.728;9.228;2023-09-07T20:45:48;0.20;;;0.20;;
2896;SDS011;1458;49.728;9.228;2023-09-07T20:48:18;0.20;;;0.20;;
2896;SDS011;1458;49.728;9.228;2023-09-07T20:50:46;0.20;;;0.20;;
2896;SDS011;1458;49.728;9.228;2023-09-07T20:53:14;0.20;;;0.20;;
2896;SDS011;1458;49.728;9.228;2023-09-07T20:55:42;0.20;;;0.20;;
2896;SDS011;1458;49.728;9.228;2023-09-07T20:58:09;0.20;;;0.20;;
2896;SDS011;1458;49.728;9.228;2023-09-07T21:00:37;0.30;;;0.30;;
2896;SDS011;1458;49.728;9.228;2023-09-07T21:03:04;0.20;;;0.20;;
2896;SDS011;1458;49.728;9.228;2023-09-07T21:05:33;0.23;;;0.23;;
2896;SDS011;1458;49.728;9.228;2023-09-07T21:08:01;0.20;;;0.20;;
2896;SDS011;1458;49.728;9.228;2023-09-07T21:10:29;0.20;;;0.20;;
2896;SDS011;1458;49.728;9.228;2023-09-07T21:12:56;0.20;;;0.20;;
2896;SDS011;1458;49.728;9.228;2023-09-07T21:15:25;0.20;;;0.20;;
2896;SDS011;1458;49.728;9.228;2023-09-07T21:17:52;0.20;;;0.20;;
2896;SDS011;1458;49.728;9.228;2023-09-07T21:20:19;0.20;;;0.20;;
2896;SDS011;1458;49.728;9.228;2023-09-07T21:22:49;0.20;;;0.20;;
2896;SDS011;1458;49.728;9.228;2023-09-07T21:25:17;0.20;;;0.20;;
2896;SDS011;1458;49.728;9.228;2023-09-07T21:27:45;0.30;;;0.30;;
2896;SDS011;1458;49.728;9.228;2023-09-07T21:30:12;0.20;;;0.20;;
2896;SDS011;1458;49.728;9.228;2023-09-07T21:32:40;0.20;;;0.20;;
2896;SDS011;1458;49.728;9.228;2023-09-07T21:35:08;0.20;;;0.20;;
2896;SDS011;1458;49.728;9.228;2023-09-07T21:37:35;0.27;;;0.27;;
2896;SDS011;1458;49.728;9.228;2023-09-07T21:40:05;0.20;;;0.20;;
2896;SDS011;1458;49.728;9.228;2023-09-07T21:42:34;0.20;;;0.20;;
2896;SDS011;1458;49.728;9.228;2023-09-07T21:45:03;0.20;;;0.20;;
2896;SDS011;1458;49.728;9.228;2023-09-07T21:47:32;0.20;;;0.20;;
2896;SDS011;1458;49.728;9.228;2023-09-07T21:49:59;0.20;;;0.20;;
2896;SDS011;1458;49.728;9.228;2023-09-07T21:52:28;0.10;;;0.10;;
2896;SDS011;1458;49.728;9.228;2023-09-07T21:54:55;0.20;;;0.20;;
2896;SDS011;1458;49.728;9.228;2023-09-07T21:57:24;0.20;;;0.20;;
2896;SDS011;1458;49.728;9.228;2023-09-07T21:59:52;0.10;;;0.10;;
2896;SDS011;1458;49.728;9.228;2023-09-07T22:02:20;0.20;;;0.20;;
2896;SDS011;1458;49.728;9.228;2023-09-07T22:04:49;0.20;;;0.20;;
2896;SDS011;1458;49.728;9.228;2023-09-07T22:07:17;0.10;;;0.10;;
2896;SDS011;1458;49.728;9.228;2023-09-07T22:09:45;0.10;;;0.10;;
2896;SDS011;1458;49.728;9.228;2023-09-07T22:12:13;0.10;;;0.10;;
2896;SDS011;1458;49.728;9.228;2023-09-07T22:14:42;0.20;;;0.20;;
2896;SDS011;1458;49.728;9.228;2023-09-07T22:17:09;0.10;;;0.10;;
2896;SDS011;1458;49.728;9.228;2023-09-07T22:19:38;0.10;;;0.10;;
2896;SDS011;1458;49.728;9.228;2023-09-07T22:22:05;0.10;;;0.10;;
2896;SDS011;1458;49.728;9.228;2023-09-07T22:24:33;0.10;;;0.10;;
2896;SDS011;1458;49.728;9.228;2023-09-07T22:27:01;0.20;;;0.20;;
2896;SDS011;1458;49.728;9.228;2023-09-07T22:29:30;0.10;;;0.10;;
2896;SDS011;1458;49.728;9.228;2023-09-07T22:32:00;0.10;;;0.10;;
2896;SDS011;1458;49.728;9.228;2023-09-07T22:34:28;0.20;;;0.20;;
2896;SDS011;1458;49.728;9.228;2023-09-07T22:36:56;0.20;;;0.20;;
2896;SDS011;1458;49.728;9.228;2023-09-07T22:39:24;0.10;;;0.10;;
2896;SDS011;1458;49.728;9.228;2023-09-07T22:41:51;0.10;;;0.10;;
2896;SDS011;1458;49.728;9.228;2023-09-07T22:44:19;0.13;;;0.13;;
2896;SDS011;1458;49.728;9.228;2023-09-07T22:46:46;0.20;;;0.20;;
2896;SDS011;1458;49.728;9.228;2023-09-07T22:49:15;0.20;;;0.20;;
2896;SDS011;1458;49.728;9.228;2023-09-07T22:51:42;0.20;;;0.20;;
2896;SDS011;1458;49.728;9.228;2023-09-07T22:54:10;0.20;;;0.20;;
2896;SDS011;1458;49.728;9.228;2023-09-07T22:56:38;0.10;;;0.10;;
2896;SDS011;1458;49.728;9.228;2023-09-07T22:59:05;0.10;;;0.10;;
2896;SDS011;1458;49.728;9.228;2023-09-07T23:01:33;0.10;;;0.10;;
2896;SDS011;1458;49.728;9.228;2023-09-07T23:04:00;0.10;;;0.10;;
2896;SDS011;1458;49.728;9.228;2023-09-07T23:06:29;0.20;;;0.20;;
2896;SDS011;1458;49.728;9.228;2023-09-07T23:08:57;0.10;;;0.10;;
2896;SDS011;1458;49.728;9.228;2023-09-07T23:11:24;0.20;;;0.20;;
2896;SDS011;1458;49.728;9.228;2023-09-07T23:13:52;0.10;;;0.10;;
2896;SDS011;1458;49.728;9.228;2023-09-07T23:16:19;0.10;;;0.10;;
2896;SDS011;1458;49.728;9.228;2023-09-07T23:18:47;0.13;;;0.13;;
2896;SDS011;1458;49.728;9.228;2023-09-07T23:21:14;0.20;;;0.20;;
2896;SDS011;1458;49.728;9.228;2023-09-07T23:23:43;0.20;;;0.20;;
2896;SDS011;1458;49.728;9.228;2023-09-07T23:26:11;0.10;;;0.10;;
2896;SDS011;1458;49.728;9.228;2023-09-07T23:28:40;0.20;;;0.20;;
2896;SDS011;1458;49.728;9.228;2023-09-07T23:31:07;0.20;;;0.20;;
2896;SDS011;1458;49.728;9.228;2023-09-07T23:33:35;0.20;;;0.20;;
2896;SDS011;1458;49.728;9.228;2023-09-07T23:36:02;0.30;;;0.30;;
2896;SDS011;1458;49.728;9.228;2023-09-07T23:38:30;0.20;;;0.20;;
2896;SDS011;1458;49.728;9.228;2023-09-07T23:40:59;0.20;;;0.20;;
2896;SDS011;1458;49.728;9.228;2023-09-07T23:43:26;0.10;;;0.10;;
2896;SDS011;1458;49.728;9.228;2023-09-07T23:45:54;0.10;;;0.10;;
2896;SDS011;1458;49.728;9.228;2023-09-07T23:48:21;0.20;;;0.20;;
2896;SDS011;1458;49.728;9.228;2023-09-07T23:50:49;0.10;;;0.10;;
2896;SDS011;1458;49.728;9.228;2023-09-07T23:53:16;0.20;;;0.20;;
2896;SDS011;1458;49.728;9.228;2023-09-07T23:55:44;0.20;;;0.20;;
2896;SDS011;1458;49.728;9.228;2023-09-07T23:58:12;0.10;;;0.10;;
